Airfield :
LOGIN :

Register | Disclaimer

   EN    FR    IT 

 










Legend :    VFR   Marginal VFR   IFR   Intensive IFR   Very Intensive IFR
Visi :
Ceiling :
>= 8 km
>= 3000ft
5 to 8 km
1000 to 3000 ft
1500m to 5 km
500 to 1000 ft
800 to 1500m
200 to 500 ft
< 800m
< 200 ft
Symbols :   Thunderstorms  Fog  Heavy snow  Heavy precipitations  Wind > 20 kt
SIGMETs :     Misc.  Thunderstorms  Icing  Turbulence  Mountain Waves  Volcanic Ashes






- Airport Elevation : 3 ft
- IATA code : DHR


EHKD - Den Helder De Kooy

CURRENT METAR :
  • 281555Z AUTO 09011KT 060V120 1900 R03/1800D BR OVC001 05/05 Q1022 RED NOSIG

EXPIRED METARs :
  • 281536Z AUTO 08011KT 050V120 1200 R03/1200N BR OVC001 05/05 Q1022 RED NOSIG
  • 281525Z AUTO 09010KT 050V120 1000 R03/1000D FG OVC001 05/05 Q1022 RED NOSIG
  • 281517Z AUTO 09008KT 050V110 1200 R03/1700D BR OVC001 05/05 Q1022 RED NOSIG
  • 281509Z AUTO 09009KT 060V120 2100 R03/2100N BR OVC001 05/05 Q1022 RED NOSIG
  • 281455Z AUTO 09008KT 060V130 2100 R03/2100N BR OVC001 05/05 Q1022 RED NOSIG
  • 281445Z AUTO 09009KT 2200 R03/2200U BR OVC001 05/05 Q1022 RED NOSIG
  • 281433Z AUTO 09010KT 050V130 1400 R03/1800D BR OVC001 05/05 Q1022 RED NOSIG
  • 281425Z AUTO 10009KT 080V140 2300 R03/2300U BR OVC001 05/05 Q1022 RED NOSIG
  • 281355Z AUTO 09009KT 060V130 1300 R03/2200D BR OVC001 06/05 Q1021 RED NOSIG
  • 281332Z AUTO 09008KT 060V120 2100 BR OVC002 06/05 Q1021 AMB NOSIG
  • 281325Z AUTO 09008KT 060V130 2800 BR OVC002 06/05 Q1021 AMB
  • 281309Z AUTO 10009KT 070V140 3600 BR OVC002 06/05 Q1021 AMB

TAF TAF EHKD
Valid from the 28 at 14:00 until the 29 at 02:00 UTC


281341Z 2814/2902 11009KT 2000 BR BKN002
PROB40 2814/2902 5000 NSW BKN007



MET'MAP, your aeronautical weather chart ! - Copyright ORBIFLY December 2007 - Disclaimer

ORBIFLY MET'MAP TEAM :

Programming & Development : Alexandra Zaïnal
Concept & original design : Baudouin d'Aumeries
Assistance for programming : Marc-Olivier Méhu
Technical & hardware support : Manuel Goepfert

Contact : metmap@orbifly.com




SOURCES & CREDITS :

   NOAA